createdAt,value
2023-03-01T00:01:41.367Z,13.95
2023-03-01T00:04:08.768Z,13.55
2023-03-01T00:06:36.950Z,15.18
2023-03-01T00:09:04.620Z,14.65
2023-03-01T00:11:33.864Z,14.07
2023-03-01T00:14:02.700Z,13.55
2023-03-01T00:16:34.652Z,14.93
2023-03-01T00:19:02.755Z,14.38
2023-03-01T00:21:30.198Z,14.63
2023-03-01T00:23:58.556Z,14.98
2023-03-01T00:26:26.798Z,14.20
2023-03-01T00:28:56.405Z,14.23
2023-03-01T00:31:31.105Z,14.52
2023-03-01T00:34:00.912Z,14.95
2023-03-01T00:36:31.528Z,15.18
2023-03-01T00:38:59.077Z,15.23
2023-03-01T00:41:27.694Z,15.73
2023-03-01T00:43:56.076Z,16.52
2023-03-01T00:46:25.947Z,17.35
2023-03-01T00:48:53.649Z,17.30
2023-03-01T00:51:24.312Z,17.90
2023-03-01T00:53:53.301Z,16.55
2023-03-01T00:56:20.893Z,17.95
2023-03-01T00:58:48.518Z,17.73
2023-03-01T01:01:21.669Z,17.60
2023-03-01T01:04:08.542Z,18.73
2023-03-01T01:06:43.440Z,17.65
2023-03-01T01:09:20.126Z,17.70
2023-03-01T01:11:50.029Z,16.98
2023-03-01T01:14:18.980Z,17.38
2023-03-01T01:16:46.585Z,17.15
2023-03-01T01:19:14.535Z,17.45
2023-03-01T01:21:44.235Z,19.13
2023-03-01T01:24:12.429Z,18.30
2023-03-01T01:26:39.736Z,17.83
2023-03-01T01:29:07.418Z,18.13
2023-03-01T01:31:36.428Z,17.30
2023-03-01T01:34:06.134Z,17.55
2023-03-01T01:36:34.490Z,18.58
2023-03-01T01:39:02.272Z,16.98
2023-03-01T01:41:30.251Z,17.33
2023-03-01T01:44:24.403Z,17.20
2023-03-01T01:47:07.572Z,16.83
2023-03-01T01:49:56.523Z,15.80
2023-03-01T01:52:37.063Z,15.75
2023-03-01T01:55:10.928Z,17.08
2023-03-01T01:57:45.788Z,16.58
2023-03-01T02:00:17.696Z,15.23
2023-03-01T02:02:47.909Z,15.68
2023-03-01T02:05:35.634Z,16.13
2023-03-01T02:08:03.668Z,15.48
2023-03-01T02:10:34.860Z,15.63
2023-03-01T02:13:03.677Z,15.55
2023-03-01T02:15:40.075Z,15.80
2023-03-01T02:18:09.352Z,15.23
2023-03-01T02:20:51.925Z,15.50
2023-03-01T02:23:19.615Z,14.43
2023-03-01T02:25:58.475Z,14.75
2023-03-01T02:28:38.139Z,16.77
2023-03-01T02:31:29.325Z,16.20
2023-03-01T02:33:58.155Z,17.85
2023-03-01T02:36:33.546Z,17.15
2023-03-01T02:39:04.234Z,18.37
2023-03-01T02:41:36.669Z,17.85
2023-03-01T02:44:05.273Z,17.50
2023-03-01T02:46:32.819Z,17.98
2023-03-01T02:49:00.674Z,16.30
2023-03-01T02:51:33.774Z,16.33
2023-03-01T02:54:37.482Z,15.95
2023-03-01T02:57:05.311Z,17.23
2023-03-01T02:59:40.350Z,15.60
2023-03-01T03:02:21.229Z,15.23
2023-03-01T03:04:48.598Z,16.00
2023-03-01T03:07:16.066Z,16.05
2023-03-01T03:09:43.321Z,14.90
2023-03-01T03:12:10.997Z,15.32
2023-03-01T03:14:38.542Z,15.13
2023-03-01T03:17:07.565Z,14.30
2023-03-01T03:19:34.774Z,13.85
2023-03-01T03:22:02.750Z,14.55
2023-03-01T03:24:39.267Z,14.23
2023-03-01T03:27:07.781Z,15.35
2023-03-01T03:29:35.287Z,15.23
2023-03-01T03:32:02.710Z,15.90
2023-03-01T03:34:30.922Z,17.83
2023-03-01T03:37:00.335Z,17.15
2023-03-01T03:39:28.376Z,17.15
2023-03-01T03:41:55.732Z,17.05
2023-03-01T03:44:22.936Z,17.27
2023-03-01T03:46:50.152Z,15.95
2023-03-01T03:49:17.457Z,17.17
2023-03-01T03:51:47.332Z,16.93
2023-03-01T03:54:14.631Z,17.23
2023-03-01T03:56:41.917Z,16.45
2023-03-01T03:59:12.327Z,17.60
2023-03-01T04:01:39.683Z,17.00
2023-03-01T04:04:08.800Z,16.30
2023-03-01T04:06:36.149Z,16.48
2023-03-01T04:09:03.588Z,15.85
2023-03-01T04:11:31.097Z,16.27
2023-03-01T04:13:59.836Z,16.92
2023-03-01T04:16:27.279Z,16.08
2023-03-01T04:18:54.621Z,16.80
2023-03-01T04:21:22.748Z,17.50
2023-03-01T04:23:53.439Z,16.48
2023-03-01T04:26:21.392Z,16.63
2023-03-01T04:28:50.405Z,17.73
2023-03-01T04:31:22.118Z,16.90
2023-03-01T04:33:54.958Z,17.40
2023-03-01T04:36:25.458Z,19.33
2023-03-01T04:38:53.394Z,17.63
2023-03-01T04:41:22.201Z,16.83
2023-03-01T04:43:50.128Z,17.37
2023-03-01T04:46:20.445Z,17.83
2023-03-01T04:48:48.412Z,17.03
2023-03-01T04:51:16.779Z,17.17
2023-03-01T04:53:45.008Z,17.17
2023-03-01T04:56:14.773Z,16.92
2023-03-01T04:58:42.857Z,17.30
2023-03-01T05:01:16.216Z,16.17
2023-03-01T05:03:45.348Z,16.43
2023-03-01T05:06:13.363Z,16.30
2023-03-01T05:08:42.390Z,17.35
2023-03-01T05:11:11.605Z,16.15
2023-03-01T05:13:40.413Z,16.83
2023-03-01T05:16:12.291Z,18.08
2023-03-01T05:18:40.754Z,18.52
2023-03-01T05:21:18.474Z,17.37
2023-03-01T05:23:47.778Z,17.37
2023-03-01T05:26:39.708Z,17.30
2023-03-01T05:29:03.941Z,17.50
2023-03-01T05:31:31.901Z,16.63
2023-03-01T05:33:59.318Z,16.70
2023-03-01T05:36:26.621Z,17.63
2023-03-01T05:38:53.919Z,17.83
2023-03-01T05:41:21.100Z,17.37
2023-03-01T05:43:48.326Z,18.13
2023-03-01T05:46:16.303Z,17.08
2023-03-01T05:48:43.723Z,18.17
2023-03-01T05:51:11.194Z,17.83
2023-03-01T05:53:38.474Z,18.38
2023-03-01T05:56:06.074Z,17.48
2023-03-01T05:58:33.326Z,18.45
2023-03-01T06:01:00.601Z,17.20
2023-03-01T06:03:27.862Z,18.25
2023-03-01T06:05:59.079Z,18.33
2023-03-01T06:08:28.122Z,18.63
2023-03-01T06:10:55.748Z,18.42
2023-03-01T06:13:24.464Z,18.83
2023-03-01T06:15:52.957Z,19.35
2023-03-01T06:18:20.475Z,19.38
2023-03-01T06:20:55.032Z,18.17
2023-03-01T06:23:26.180Z,18.35
2023-03-01T06:25:53.971Z,18.97
2023-03-01T06:28:21.595Z,18.67
2023-03-01T06:30:50.701Z,19.63
2023-03-01T06:33:20.169Z,18.90
2023-03-01T06:35:48.068Z,19.45
2023-03-01T06:38:19.895Z,19.63
2023-03-01T06:40:54.935Z,19.38
2023-03-01T06:43:22.475Z,19.25
2023-03-01T06:45:49.818Z,19.80
2023-03-01T06:48:17.062Z,19.15
2023-03-01T06:50:44.373Z,20.15
2023-03-01T06:53:11.916Z,19.80
2023-03-01T06:55:39.281Z,19.77
2023-03-01T06:58:06.545Z,19.23
2023-03-01T07:00:34.042Z,20.67
2023-03-01T07:03:03.397Z,20.00
2023-03-01T07:05:34.577Z,19.70
2023-03-01T07:08:02.050Z,19.88
2023-03-01T07:10:29.967Z,20.35
2023-03-01T07:12:58.854Z,19.25
2023-03-01T07:15:27.414Z,21.00
2023-03-01T07:17:54.929Z,20.33
2023-03-01T07:20:26.284Z,21.17
2023-03-01T07:22:54.997Z,20.05
2023-03-01T07:25:22.651Z,18.77
2023-03-01T07:27:51.629Z,21.13
2023-03-01T07:30:19.405Z,20.85
2023-03-01T07:32:46.866Z,20.35
2023-03-01T07:35:15.783Z,20.00
2023-03-01T07:37:43.300Z,21.13
2023-03-01T07:40:11.393Z,19.55
2023-03-01T07:42:38.929Z,20.65
2023-03-01T07:45:07.497Z,19.65
2023-03-01T07:47:34.736Z,20.20
2023-03-01T07:50:04.976Z,19.45
2023-03-01T07:52:32.447Z,20.08
2023-03-01T07:54:59.712Z,19.92
2023-03-01T07:57:27.369Z,20.67
2023-03-01T07:59:54.574Z,20.08
2023-03-01T08:02:21.971Z,20.38
2023-03-01T08:04:49.209Z,20.08
2023-03-01T08:07:16.578Z,21.13
2023-03-01T08:09:43.952Z,20.45
2023-03-01T08:12:11.305Z,20.85
2023-03-01T08:14:38.634Z,20.13
2023-03-01T08:17:05.901Z,20.55
2023-03-01T08:19:34.168Z,19.90
2023-03-01T08:22:03.479Z,18.83
2023-03-01T08:24:30.860Z,18.83
2023-03-01T08:26:58.229Z,19.10
2023-03-01T08:29:28.079Z,18.52
2023-03-01T08:31:55.384Z,18.83
2023-03-01T08:34:22.721Z,18.60
2023-03-01T08:36:51.114Z,18.05
2023-03-01T08:39:20.275Z,18.13
2023-03-01T08:41:48.365Z,18.88
2023-03-01T08:44:20.539Z,17.95
2023-03-01T08:46:48.094Z,18.20
2023-03-01T08:49:17.719Z,18.13
2023-03-01T08:51:46.348Z,17.85
2023-03-01T08:54:19.606Z,17.95
2023-03-01T08:56:47.709Z,18.90
2023-03-01T08:59:16.744Z,17.50
2023-03-01T09:01:44.723Z,17.05
2023-03-01T09:04:13.394Z,15.95
2023-03-01T09:06:40.762Z,15.57
2023-03-01T09:09:15.932Z,14.75
2023-03-01T09:11:44.635Z,14.27
2023-03-01T09:14:13.312Z,15.05
2023-03-01T09:16:40.967Z,14.68
2023-03-01T09:19:08.279Z,14.00
2023-03-01T09:21:40.731Z,14.82
2023-03-01T09:24:14.443Z,15.02
2023-03-01T09:26:41.925Z,14.60
2023-03-01T09:29:10.630Z,15.02
2023-03-01T09:31:38.340Z,15.00
2023-03-01T09:34:06.141Z,16.13
2023-03-01T09:36:34.296Z,16.55
2023-03-01T09:39:02.395Z,16.27
2023-03-01T09:41:50.558Z,20.08
2023-03-01T09:44:39.364Z,20.58
2023-03-01T09:47:11.077Z,19.85
2023-03-01T09:49:49.567Z,19.55
2023-03-01T09:52:30.363Z,19.45
2023-03-01T09:55:00.348Z,20.52
2023-03-01T09:57:39.630Z,20.63
2023-03-01T10:00:17.790Z,20.20
2023-03-01T10:02:53.540Z,20.42
2023-03-01T10:05:36.013Z,19.88
2023-03-01T10:08:09.299Z,20.08
2023-03-01T10:10:40.523Z,20.88
2023-03-01T10:13:24.420Z,20.40
2023-03-01T10:15:57.090Z,21.08
2023-03-01T10:18:30.868Z,20.98
2023-03-01T10:21:03.408Z,21.27
2023-03-01T10:23:33.490Z,21.13
2023-03-01T10:26:19.499Z,21.52
2023-03-01T10:29:03.604Z,21.85
2023-03-01T10:31:52.475Z,20.33
2023-03-01T10:34:30.201Z,20.98
2023-03-01T10:37:14.993Z,21.10
2023-03-01T10:39:59.388Z,19.75
2023-03-01T10:42:29.755Z,21.25
2023-03-01T10:44:57.691Z,20.67
2023-03-01T10:47:27.858Z,20.33
2023-03-01T10:50:09.090Z,19.95
2023-03-01T10:52:38.782Z,19.95
2023-03-01T10:55:30.421Z,20.60
2023-03-01T10:58:08.437Z,21.98
2023-03-01T11:00:57.101Z,21.60
2023-03-01T11:03:28.490Z,22.55
2023-03-01T11:06:06.760Z,22.65
2023-03-01T11:08:40.576Z,21.95
2023-03-01T11:11:10.559Z,21.77
2023-03-01T11:13:40.161Z,22.15
2023-03-01T11:16:11.351Z,22.70
2023-03-01T11:18:47.791Z,22.60
2023-03-01T11:21:17.034Z,23.38
2023-03-01T11:23:47.584Z,22.02
2023-03-01T11:26:18.352Z,22.50
2023-03-01T11:28:52.414Z,20.88
2023-03-01T11:31:20.496Z,19.63
2023-03-01T11:34:20.434Z,20.08
2023-03-01T11:36:56.005Z,20.13
2023-03-01T11:39:28.702Z,20.77
2023-03-01T11:42:21.987Z,19.88
2023-03-01T11:44:55.322Z,19.63
2023-03-01T11:47:25.721Z,19.40
2023-03-01T11:50:29.638Z,20.35
2023-03-01T11:53:02.392Z,18.55
2023-03-01T11:55:47.782Z,19.15
2023-03-01T11:58:27.021Z,18.30
2023-03-01T12:01:24.262Z,19.58
2023-03-01T12:03:57.792Z,17.95
2023-03-01T12:07:02.547Z,17.95
2023-03-01T12:09:33.015Z,17.80
2023-03-01T12:12:38.702Z,17.92
2023-03-01T12:15:41.719Z,18.42
2023-03-01T12:18:17.926Z,11.55
2023-03-01T12:21:24.721Z,15.40
2023-03-01T12:24:26.514Z,14.10
2023-03-01T12:27:20.003Z,13.48
2023-03-01T12:29:58.193Z,12.65
2023-03-01T12:32:49.912Z,12.38
2023-03-01T12:35:39.100Z,9.50
2023-03-01T12:38:12.295Z,10.55
2023-03-01T12:41:04.408Z,7.85
2023-03-01T12:43:56.391Z,7.40
2023-03-01T12:46:42.088Z,7.32
2023-03-01T12:49:15.071Z,8.10
2023-03-01T12:51:52.781Z,7.13
2023-03-01T12:54:37.091Z,6.57
2023-03-01T12:57:26.562Z,7.30
2023-03-01T13:00:19.910Z,12.18
2023-03-01T13:03:11.741Z,7.63
2023-03-01T13:06:08.881Z,11.35
2023-03-01T13:08:49.732Z,11.02
2023-03-01T13:11:22.934Z,11.57
2023-03-01T13:13:52.389Z,7.72
2023-03-01T13:16:37.877Z,8.38
2023-03-01T13:19:20.094Z,6.90
2023-03-01T13:21:49.465Z,8.77
2023-03-01T13:24:29.992Z,8.10
2023-03-01T13:27:09.206Z,5.97
2023-03-01T13:30:26.008Z,8.15
2023-03-01T13:32:53.565Z,6.28
2023-03-01T13:35:21.040Z,6.03
2023-03-01T13:37:48.647Z,5.82
2023-03-01T13:40:23.519Z,5.75
2023-03-01T13:43:04.733Z,5.57
2023-03-01T13:45:44.102Z,6.93
2023-03-01T13:48:19.638Z,9.32
2023-03-01T13:50:53.831Z,6.18
2023-03-01T13:53:25.453Z,5.63
2023-03-01T13:55:59.937Z,4.97
2023-03-01T13:58:44.477Z,4.88
2023-03-01T14:01:25.954Z,6.07
2023-03-01T14:03:54.176Z,5.40
2023-03-01T14:06:26.584Z,6.03
2023-03-01T14:09:18.820Z,5.90
2023-03-01T14:12:12.100Z,5.80
2023-03-01T14:15:00.726Z,5.53
2023-03-01T14:17:39.853Z,5.78
2023-03-01T14:20:28.612Z,6.15
2023-03-01T14:22:59.203Z,6.13
2023-03-01T14:25:35.237Z,7.57
2023-03-01T14:28:22.805Z,5.57
2023-03-01T14:30:52.567Z,5.85
2023-03-01T14:33:37.329Z,5.88
2023-03-01T14:36:10.581Z,6.78
2023-03-01T14:38:43.631Z,6.90
2023-03-01T14:41:22.172Z,6.28
2023-03-01T14:43:53.709Z,6.07
2023-03-01T14:46:34.607Z,5.65
2023-03-01T14:49:21.352Z,7.15
2023-03-01T14:52:35.700Z,5.82
2023-03-01T14:55:17.527Z,5.72
2023-03-01T14:57:47.692Z,6.13
2023-03-01T15:00:29.864Z,6.40
2023-03-01T15:03:01.492Z,7.95
2023-03-01T15:05:33.803Z,7.07
2023-03-01T15:08:03.170Z,9.55
2023-03-01T15:10:36.429Z,10.40
2023-03-01T15:13:22.299Z,7.40
2023-03-01T15:15:52.215Z,8.93
2023-03-01T15:18:26.533Z,6.43
2023-03-01T15:20:54.379Z,6.72
2023-03-01T15:23:28.249Z,6.82
2023-03-01T15:25:59.742Z,6.32
2023-03-01T15:28:32.042Z,6.25
2023-03-01T15:31:20.073Z,6.32
2023-03-01T15:33:48.241Z,5.70
2023-03-01T15:36:37.492Z,5.60
2023-03-01T15:39:07.165Z,6.85
2023-03-01T15:41:47.508Z,6.35
2023-03-01T15:44:30.010Z,6.65
2023-03-01T15:47:06.400Z,7.30
2023-03-01T15:49:54.260Z,8.75
2023-03-01T15:52:40.414Z,8.93
2023-03-01T15:55:29.646Z,9.00
2023-03-01T15:58:21.805Z,9.15
2023-03-01T16:01:00.676Z,9.07
2023-03-01T16:03:29.308Z,9.00
2023-03-01T16:05:56.814Z,8.52
2023-03-01T16:08:24.426Z,7.82
2023-03-01T16:10:52.441Z,8.02
2023-03-01T16:13:20.343Z,8.30
2023-03-01T16:15:47.919Z,10.00
2023-03-01T16:18:15.409Z,9.45
2023-03-01T16:20:42.648Z,9.90
2023-03-01T16:23:12.518Z,9.73
2023-03-01T16:25:39.929Z,9.68
2023-03-01T16:28:11.906Z,9.48
2023-03-01T16:30:40.915Z,8.52
2023-03-01T16:33:24.291Z,9.70
2023-03-01T16:35:55.180Z,10.63
2023-03-01T16:38:22.595Z,10.80
2023-03-01T16:40:52.134Z,8.98
2023-03-01T16:43:19.826Z,8.65
2023-03-01T16:45:47.667Z,9.48
2023-03-01T16:48:15.533Z,14.88
2023-03-01T16:50:42.843Z,13.02
2023-03-01T16:53:10.272Z,14.77
2023-03-01T16:55:38.792Z,12.23
2023-03-01T16:58:06.613Z,13.27
2023-03-01T17:00:33.928Z,29.65
2023-03-01T17:03:01.210Z,11.23
2023-03-01T17:05:28.666Z,11.20
2023-03-01T17:07:58.176Z,12.88
2023-03-01T17:10:25.537Z,12.77
2023-03-01T17:12:53.020Z,13.32
2023-03-01T17:15:20.391Z,13.25
2023-03-01T17:17:51.628Z,20.30
2023-03-01T17:20:19.325Z,17.90
2023-03-01T17:22:46.651Z,22.23
2023-03-01T17:25:14.469Z,18.52
2023-03-01T17:27:41.828Z,13.10
2023-03-01T17:30:12.697Z,16.17
2023-03-01T17:32:40.870Z,12.20
2023-03-01T17:35:08.800Z,21.63
2023-03-01T17:37:37.108Z,11.18
2023-03-01T17:40:05.364Z,24.17
2023-03-01T17:42:33.806Z,12.63
2023-03-01T17:45:04.756Z,12.82
2023-03-01T17:47:32.352Z,10.10
2023-03-01T17:50:00.599Z,10.30
2023-03-01T17:52:31.308Z,10.27
2023-03-01T17:54:58.667Z,9.98
2023-03-01T17:57:26.380Z,9.48
2023-03-01T17:59:53.626Z,10.07
2023-03-01T18:02:23.935Z,12.32
2023-03-01T18:04:53.654Z,11.45
2023-03-01T18:07:21.410Z,10.10
2023-03-01T18:09:48.645Z,10.48
2023-03-01T18:12:15.878Z,14.25
2023-03-01T18:14:43.149Z,11.98
2023-03-01T18:17:12.314Z,10.18
2023-03-01T18:19:43.535Z,8.55
2023-03-01T18:22:10.856Z,10.68
2023-03-01T18:24:38.422Z,9.45
2023-03-01T18:27:06.189Z,9.80
2023-03-01T18:29:33.998Z,9.68
2023-03-01T18:32:01.374Z,9.50
2023-03-01T18:34:28.883Z,9.32
2023-03-01T18:37:08.658Z,9.60
2023-03-01T18:39:37.312Z,9.75
2023-03-01T18:42:05.049Z,7.80
2023-03-01T18:44:32.377Z,14.48
2023-03-01T18:46:59.628Z,10.77
2023-03-01T18:49:27.204Z,27.55
2023-03-01T18:51:54.478Z,9.70
2023-03-01T18:54:21.929Z,10.00
2023-03-01T18:56:49.214Z,12.40
2023-03-01T18:59:16.569Z,13.68
2023-03-01T19:01:43.924Z,14.80
2023-03-01T19:04:11.964Z,9.63
2023-03-01T19:06:39.365Z,9.32
2023-03-01T19:09:07.820Z,11.35
2023-03-01T19:11:35.948Z,12.13
2023-03-01T19:14:04.178Z,8.63
2023-03-01T19:16:33.408Z,8.98
2023-03-01T19:19:02.967Z,8.88
2023-03-01T19:21:32.535Z,10.85
2023-03-01T19:24:02.376Z,8.85
2023-03-01T19:26:31.360Z,9.70
2023-03-01T19:28:59.021Z,8.90
2023-03-01T19:31:29.591Z,7.60
2023-03-01T19:34:12.699Z,8.43
2023-03-01T19:36:42.462Z,8.45
2023-03-01T19:39:11.396Z,8.82
2023-03-01T19:41:38.876Z,9.48
2023-03-01T19:44:08.723Z,8.70
2023-03-01T19:46:36.550Z,10.98
2023-03-01T19:49:04.749Z,6.93
2023-03-01T19:51:38.815Z,5.75
2023-03-01T19:54:06.675Z,5.43
2023-03-01T19:56:34.696Z,5.30
2023-03-01T19:59:04.412Z,5.40
2023-03-01T20:01:34.511Z,6.53
2023-03-01T20:04:02.970Z,5.35
2023-03-01T20:06:31.243Z,4.88
2023-03-01T20:09:00.731Z,5.20
2023-03-01T20:11:29.854Z,4.82
2023-03-01T20:13:57.166Z,4.10
2023-03-01T20:16:26.792Z,4.70
2023-03-01T20:18:54.343Z,3.80
2023-03-01T20:21:24.295Z,3.67
2023-03-01T20:23:52.136Z,4.13
2023-03-01T20:26:20.598Z,3.50
2023-03-01T20:28:49.995Z,3.33
2023-03-01T20:31:19.884Z,3.00
2023-03-01T20:33:47.661Z,2.78
2023-03-01T20:36:15.385Z,3.78
2023-03-01T20:38:42.722Z,3.80
2023-03-01T20:41:12.616Z,2.58
2023-03-01T20:43:42.208Z,2.75
2023-03-01T20:46:15.020Z,2.85
2023-03-01T20:48:43.159Z,2.40
2023-03-01T20:51:12.127Z,2.40
2023-03-01T20:53:39.855Z,2.85
2023-03-01T20:56:10.258Z,2.78
2023-03-01T20:58:38.053Z,3.03
2023-03-01T21:01:06.338Z,3.42
2023-03-01T21:03:34.238Z,2.78
2023-03-01T21:06:02.876Z,3.30
2023-03-01T21:08:30.853Z,6.90
2023-03-01T21:10:59.246Z,6.68
2023-03-01T21:13:28.205Z,4.80
2023-03-01T21:16:04.647Z,3.40
2023-03-01T21:18:40.425Z,3.22
2023-03-01T21:21:11.033Z,3.17
2023-03-01T21:23:41.104Z,3.13
2023-03-01T21:26:19.308Z,2.90
2023-03-01T21:28:50.449Z,2.45
2023-03-01T21:31:23.514Z,3.40
2023-03-01T21:34:00.964Z,2.95
2023-03-01T21:36:30.544Z,2.65
2023-03-01T21:38:59.743Z,2.30
2023-03-01T21:41:30.718Z,2.47
2023-03-01T21:44:03.096Z,2.38
2023-03-01T21:46:34.748Z,2.30
2023-03-01T21:49:04.831Z,2.33
2023-03-01T21:51:32.925Z,2.50
2023-03-01T21:54:03.562Z,2.90
2023-03-01T21:56:34.542Z,2.45
2023-03-01T21:59:02.331Z,2.20
2023-03-01T22:01:29.645Z,2.20
2023-03-01T22:03:58.622Z,2.67
2023-03-01T22:06:33.702Z,2.50
2023-03-01T22:09:07.549Z,2.33
2023-03-01T22:11:40.394Z,2.53
2023-03-01T22:14:08.810Z,2.63
2023-03-01T22:16:38.179Z,2.80
2023-03-01T22:19:07.038Z,2.65
2023-03-01T22:21:35.159Z,3.17
2023-03-01T22:24:03.966Z,2.85
2023-03-01T22:26:37.409Z,2.63
2023-03-01T22:29:08.260Z,2.28
2023-03-01T22:31:36.113Z,2.60
2023-03-01T22:34:04.417Z,2.60
2023-03-01T22:36:32.072Z,2.30
2023-03-01T22:39:00.395Z,2.50
2023-03-01T22:41:44.175Z,2.15
2023-03-01T22:44:17.012Z,2.03
2023-03-01T22:46:45.221Z,2.35
2023-03-01T22:49:15.512Z,2.28
2023-03-01T22:51:44.782Z,2.10
2023-03-01T22:54:12.147Z,1.92
2023-03-01T22:56:40.271Z,2.40
2023-03-01T22:59:09.768Z,2.42
2023-03-01T23:01:39.199Z,2.35
2023-03-01T23:04:07.620Z,2.40
2023-03-01T23:06:35.683Z,2.30
2023-03-01T23:09:06.828Z,2.22
2023-03-01T23:11:34.077Z,1.80
2023-03-01T23:14:01.353Z,1.95
2023-03-01T23:16:28.685Z,2.13
2023-03-01T23:18:59.020Z,1.65
2023-03-01T23:21:26.835Z,2.17
2023-03-01T23:23:55.689Z,2.10
2023-03-01T23:26:26.173Z,1.90
2023-03-01T23:28:54.430Z,2.15
2023-03-01T23:31:22.206Z,1.60
2023-03-01T23:33:49.607Z,1.70
2023-03-01T23:36:21.521Z,1.90
2023-03-01T23:38:51.665Z,1.80
2023-03-01T23:41:21.538Z,1.45
2023-03-01T23:43:50.973Z,1.33
2023-03-01T23:46:20.306Z,1.63
2023-03-01T23:48:48.099Z,1.60
2023-03-01T23:51:17.644Z,1.63
2023-03-01T23:53:54.577Z,1.60
2023-03-01T23:56:27.008Z,1.60
2023-03-01T23:59:19.025Z,1.30
